createdAt,value
2018-12-15T00:13:34.019Z,18.83
2018-12-15T00:16:01.519Z,20.07
2018-12-15T00:18:29.055Z,20.77
2018-12-15T00:20:56.665Z,20.87
2018-12-15T00:23:24.136Z,19.90
2018-12-15T00:25:51.602Z,20.73
2018-12-15T00:28:19.101Z,20.70
2018-12-15T00:30:46.568Z,20.53
2018-12-15T00:33:14.029Z,21.30
2018-12-15T00:35:41.858Z,20.40
2018-12-15T00:38:09.330Z,21.17
2018-12-15T00:40:36.794Z,21.40
2018-12-15T00:43:04.305Z,20.57
2018-12-15T00:45:31.774Z,20.20
2018-12-15T00:47:59.254Z,20.47
2018-12-15T00:50:27.758Z,19.67
2018-12-15T01:10:16.318Z,19.63
2018-12-15T01:12:43.917Z,20.87
2018-12-15T01:15:11.379Z,20.03
2018-12-15T01:17:38.853Z,19.70
2018-12-15T01:20:06.418Z,21.07
2018-12-15T01:22:33.898Z,21.13
2018-12-15T01:25:01.360Z,20.80
2018-12-15T01:27:28.854Z,21.53
2018-12-15T01:29:56.321Z,20.33
2018-12-15T01:32:23.799Z,20.50
2018-12-15T01:34:51.855Z,21.80
2018-12-15T01:37:19.315Z,21.23
2018-12-15T01:39:46.782Z,21.17
2018-12-15T01:42:14.305Z,22.23
2018-12-15T01:44:41.876Z,22.27
2018-12-15T01:47:09.333Z,21.30
2018-12-15T01:49:36.965Z,21.37
2018-12-15T01:52:04.435Z,22.23
2018-12-15T01:54:31.897Z,20.83
2018-12-15T01:56:59.669Z,22.70
2018-12-15T01:59:27.130Z,22.13
2018-12-15T02:01:54.698Z,21.60
2018-12-15T02:04:22.203Z,22.43
2018-12-15T02:06:49.678Z,22.13
2018-12-15T02:09:17.138Z,21.03
2018-12-15T02:11:44.646Z,22.17
2018-12-15T02:14:12.112Z,22.50
2018-12-15T02:16:39.583Z,22.23
2018-12-15T02:19:07.230Z,21.90
2018-12-15T02:21:34.701Z,23.23
2018-12-15T02:41:22.478Z,22.57
2018-12-15T03:01:12.099Z,21.63
2018-12-15T03:03:39.731Z,24.33
2018-12-15T03:06:07.193Z,22.13
2018-12-15T03:08:34.665Z,23.10
2018-12-15T03:11:02.526Z,23.23
2018-12-15T03:13:30.004Z,22.73
2018-12-15T03:15:57.458Z,23.37
2018-12-15T03:18:24.974Z,22.67
2018-12-15T03:20:59.628Z,23.13
2018-12-15T03:40:49.606Z,23.13
2018-12-15T04:00:38.715Z,24.37
2018-12-15T04:03:06.478Z,22.63
2018-12-15T04:05:33.943Z,25.17
2018-12-15T04:08:01.426Z,23.47
2018-12-15T04:10:29.282Z,24.37
2018-12-15T04:12:56.764Z,23.73
2018-12-15T04:15:24.329Z,22.70
2018-12-15T04:17:52.082Z,23.67
2018-12-15T04:20:19.536Z,23.07
2018-12-15T04:22:47.024Z,23.27
2018-12-15T04:25:14.774Z,23.27
2018-12-15T04:27:42.234Z,22.97
2018-12-15T04:30:09.782Z,24.03
2018-12-15T04:32:37.285Z,21.50
2018-12-15T04:35:04.812Z,22.63
2018-12-15T04:37:32.274Z,23.00
2018-12-15T04:39:59.761Z,23.53
2018-12-15T04:42:27.393Z,22.20
2018-12-15T04:44:54.863Z,23.77
2018-12-15T04:47:22.657Z,22.63
2018-12-15T04:49:50.119Z,22.83
2018-12-15T04:52:17.593Z,23.17
2018-12-15T04:54:45.107Z,22.10
2018-12-15T04:57:12.573Z,23.03
2018-12-15T04:59:40.197Z,23.10
2018-12-15T05:02:08.027Z,22.00
2018-12-15T05:04:35.505Z,22.27
2018-12-15T05:24:24.713Z,21.17
2018-12-15T05:26:52.183Z,21.07
2018-12-15T05:46:41.791Z,20.67
2018-12-15T05:49:09.251Z,21.70
2018-12-15T05:51:36.783Z,20.77
2018-12-15T05:54:04.374Z,19.30
2018-12-15T05:56:31.841Z,19.70
2018-12-15T05:58:59.318Z,21.20
2018-12-15T06:01:27.078Z,22.13
2018-12-15T06:03:54.538Z,21.00
2018-12-15T06:06:22.006Z,20.93
2018-12-15T06:08:49.518Z,20.43
2018-12-15T06:11:16.991Z,21.27
2018-12-15T06:31:05.557Z,21.20
2018-12-15T06:33:33.089Z,22.40
2018-12-15T06:36:00.556Z,20.53
2018-12-15T06:38:28.142Z,21.90
2018-12-15T06:40:55.610Z,21.27
2018-12-15T06:43:23.341Z,21.57
2018-12-15T06:45:51.120Z,20.67
2018-12-15T06:48:18.581Z,22.83
2018-12-15T06:50:46.042Z,21.77
2018-12-15T07:10:33.805Z,21.87
2018-12-15T07:13:01.288Z,20.80
2018-12-15T07:15:29.440Z,21.23
2018-12-15T07:35:18.188Z,21.93
2018-12-15T07:37:45.658Z,23.73
2018-12-15T07:40:13.190Z,22.17
2018-12-15T07:42:41.352Z,24.53
2018-12-15T07:45:08.850Z,23.67
2018-12-15T07:47:36.801Z,21.73
2018-12-15T07:50:04.764Z,22.77
2018-12-15T07:52:32.232Z,22.47
2018-12-15T07:54:59.685Z,22.00
2018-12-15T07:57:27.189Z,23.10
2018-12-15T07:59:54.654Z,20.93
2018-12-15T08:02:22.189Z,22.20
2018-12-15T08:04:49.749Z,21.97
2018-12-15T08:07:17.402Z,20.83
2018-12-15T08:09:46.832Z,22.13
2018-12-15T08:29:36.022Z,22.23
2018-12-15T08:32:03.498Z,22.70
2018-12-15T08:34:30.965Z,22.93
2018-12-15T08:36:58.582Z,23.80
2018-12-15T08:39:26.109Z,21.70
2018-12-15T08:41:53.716Z,22.77
2018-12-15T08:44:21.530Z,22.57
2018-12-15T08:46:49.003Z,23.33
2018-12-15T08:49:16.562Z,22.13
2018-12-15T08:51:44.060Z,22.17
2018-12-15T08:54:11.528Z,22.77
2018-12-15T08:56:39.004Z,21.97
2018-12-15T08:59:06.704Z,21.77
2018-12-15T09:01:34.167Z,22.73
2018-12-15T09:04:01.623Z,21.33
2018-12-15T09:23:50.626Z,21.93
2018-12-15T09:26:18.137Z,22.27
2018-12-15T09:46:07.411Z,19.50
2018-12-15T10:05:56.378Z,20.57
2018-12-15T10:08:24.190Z,21.03
2018-12-15T10:10:51.674Z,20.30
2018-12-15T10:13:19.137Z,21.90
2018-12-15T10:15:46.637Z,20.67
2018-12-15T10:18:14.115Z,20.03
2018-12-15T10:38:03.153Z,20.73
2018-12-15T10:57:51.231Z,21.57
2018-12-15T11:00:23.746Z,21.17
2018-12-15T11:02:51.211Z,20.57
2018-12-15T11:05:18.696Z,21.73
2018-12-15T11:07:46.302Z,21.47
2018-12-15T11:10:13.773Z,20.50
2018-12-15T11:12:41.237Z,21.77
2018-12-15T11:15:08.874Z,21.33
2018-12-15T11:17:36.345Z,21.10
2018-12-15T11:20:04.750Z,20.37
2018-12-15T11:22:32.253Z,20.57
2018-12-15T11:24:59.714Z,19.90
2018-12-15T11:27:28.136Z,20.20
2018-12-15T11:29:55.906Z,20.53
2018-12-15T11:32:23.405Z,20.53
2018-12-15T11:34:50.869Z,21.07
2018-12-15T11:37:18.500Z,20.43
2018-12-15T11:39:45.957Z,19.67
2018-12-15T11:42:13.442Z,18.97
2018-12-15T11:44:41.110Z,19.83
2018-12-15T11:47:08.578Z,20.33
2018-12-15T11:49:36.148Z,20.23
2018-12-15T11:52:03.707Z,20.67
2018-12-15T11:54:31.182Z,20.87
2018-12-15T11:56:58.641Z,19.43
2018-12-15T11:59:26.137Z,20.67
2018-12-15T12:01:53.604Z,20.33
2018-12-15T12:04:21.078Z,19.50
2018-12-15T12:06:49.068Z,21.27
2018-12-15T12:09:16.561Z,20.43
2018-12-15T12:29:05.847Z,19.93
2018-12-15T12:31:33.314Z,21.87
2018-12-15T12:34:00.779Z,20.50
2018-12-15T12:36:28.440Z,20.47
2018-12-15T12:38:55.914Z,20.37
2018-12-15T12:41:23.390Z,22.07
2018-12-15T12:43:51.030Z,20.97
2018-12-15T12:46:18.575Z,20.47
2018-12-15T12:48:46.045Z,20.90
2018-12-15T12:51:13.536Z,21.30
2018-12-15T12:53:41.003Z,20.63
2018-12-15T12:56:08.471Z,19.93
2018-12-15T12:58:36.101Z,20.27
2018-12-15T13:01:03.582Z,20.93
2018-12-15T13:03:31.045Z,21.57
2018-12-15T13:05:58.814Z,21.30
2018-12-15T13:08:26.284Z,21.10
2018-12-15T13:10:53.922Z,19.60
2018-12-15T13:13:21.801Z,20.43
2018-12-15T13:15:49.279Z,20.53
2018-12-15T13:18:16.868Z,20.10
2018-12-15T13:20:44.497Z,21.43
2018-12-15T13:23:11.967Z,21.60
2018-12-15T13:25:39.429Z,21.57
2018-12-15T13:28:06.936Z,20.07
2018-12-15T13:30:34.841Z,20.47
2018-12-15T13:33:04.538Z,23.00
2018-12-15T13:35:32.103Z,22.37
2018-12-15T13:37:59.573Z,21.37
2018-12-15T13:40:27.186Z,21.23
2018-12-15T13:42:55.032Z,20.53
2018-12-15T14:02:16.207Z,20.80
2018-12-15T14:22:04.171Z,21.23
2018-12-15T14:24:31.663Z,21.23
2018-12-15T14:44:20.363Z,21.10
2018-12-15T14:46:48.121Z,21.63
2018-12-15T14:49:15.594Z,21.17
2018-12-15T15:09:06.534Z,21.30
2018-12-15T15:28:55.013Z,21.77
2018-12-15T15:31:22.506Z,21.47
2018-12-15T15:33:49.993Z,21.67
2018-12-15T15:36:17.453Z,21.67
2018-12-15T15:56:06.229Z,22.13
2018-12-15T15:58:34.038Z,20.77
2018-12-15T16:01:01.506Z,20.83
2018-12-15T16:39:16.758Z,21.73
2018-12-15T16:41:44.274Z,21.73
2018-12-15T16:44:11.747Z,21.43
2018-12-15T16:46:39.221Z,20.83
2018-12-15T16:49:06.739Z,22.17
2018-12-15T16:51:34.201Z,22.80
2018-12-15T16:54:01.906Z,22.47
2018-12-15T16:56:29.532Z,21.77
2018-12-15T16:58:56.993Z,22.60
2018-12-15T17:01:24.457Z,22.83
2018-12-15T17:03:52.039Z,22.63
2018-12-15T17:06:19.566Z,22.30
2018-12-15T17:25:40.554Z,22.10
2018-12-15T17:28:08.039Z,23.33
2018-12-15T17:30:35.506Z,26.27
2018-12-15T17:33:03.237Z,23.70
2018-12-15T17:35:30.710Z,23.20
2018-12-15T17:55:19.483Z,26.27
2018-12-15T18:15:08.647Z,24.17
2018-12-15T18:36:28.398Z,20.87
2018-12-15T18:38:55.874Z,21.20
2018-12-15T18:41:23.347Z,20.77
2018-12-15T18:43:50.882Z,21.20
2018-12-15T18:46:18.362Z,21.27
2018-12-15T19:06:07.563Z,19.93
2018-12-15T19:08:35.032Z,20.53
2018-12-15T19:28:24.646Z,26.30
2018-12-15T19:30:52.118Z,30.17
2018-12-15T19:33:19.600Z,31.73
2018-12-15T19:35:47.101Z,28.70
2018-12-15T19:38:14.569Z,28.10
2018-12-15T19:58:03.154Z,25.33
2018-12-15T20:17:51.577Z,26.07
2018-12-15T20:20:19.124Z,29.13
2018-12-15T20:22:46.585Z,29.93
2018-12-15T20:25:14.162Z,29.57
2018-12-15T20:45:03.718Z,23.53
2018-12-15T21:04:52.478Z,24.57
2018-12-15T21:24:41.401Z,23.83
2018-12-15T21:44:30.990Z,23.40
2018-12-15T21:46:58.904Z,24.43
2018-12-15T22:06:47.945Z,24.30
2018-12-15T22:26:35.790Z,25.03
2018-12-15T22:46:25.121Z,25.13
2018-12-15T22:48:52.874Z,25.67
2018-12-15T23:08:41.077Z,25.33
2018-12-15T23:11:08.938Z,26.50
2018-12-15T23:13:36.413Z,25.77
2018-12-15T23:16:03.950Z,24.90
2018-12-15T23:18:31.735Z,25.63
2018-12-15T23:20:59.203Z,26.50
2018-12-15T23:23:26.674Z,25.97
2018-12-15T23:25:54.299Z,25.03
2018-12-15T23:28:21.773Z,25.10
2018-12-15T23:30:49.239Z,24.10
2018-12-15T23:33:16.839Z,25.77
2018-12-15T23:35:44.305Z,26.27
2018-12-15T23:38:11.770Z,25.50
2018-12-15T23:40:39.263Z,25.47
2018-12-15T23:43:06.729Z,26.37
2018-12-15T23:45:34.199Z,25.63
2018-12-15T23:48:01.986Z,26.37
2018-12-15T23:50:29.457Z,26.60
2018-12-15T23:52:56.930Z,26.20
2018-12-15T23:55:24.985Z,27.70
2018-12-15T23:57:52.461Z,25.70
